Time;durP1;ratioP1;P1;durP2;ratioP2;P2;SDS_P1;SDS_P2;PMS_P1;PMS_P2;Temp;Humidity;BMP_temperature;BMP_pressure;BME280_temperature;BME280_humidity;BME280_pressure;Samples;Min_cycle;Max_cycle;Signal;HPM_P1;HPM_P2
2021/07/28 00:02:18;;;;;;;5.45;1.88;;;;;;;16.13;73.91;100148.47;3565096;40;20126;-76
2021/07/28 00:04:45;;;;;;;4.78;1.50;;;;;;;16.13;74.46;100155.50;3568553;40;20649;-75
2021/07/28 00:07:12;;;;;;;5.33;2.00;;;;;;;16.10;75.25;100156.50;3574059;40;20057;-76
2021/07/28 00:09:39;;;;;;;3.93;1.57;;;;;;;16.08;74.97;100153.13;3574022;40;20057;-75
2021/07/28 00:12:06;;;;;;;5.45;1.95;;;;;;;16.06;74.99;100144.44;3581510;40;20283;-75
2021/07/28 00:14:39;;;;;;;4.78;1.92;;;;;;;16.06;74.06;100147.91;3564035;40;20064;-75
2021/07/28 00:17:09;;;;;;;5.00;1.75;;;;;;;15.96;74.59;100133.53;3557361;40;20072;-76
2021/07/28 00:19:51;;;;;;;6.75;1.80;;;;;;;15.99;74.33;100145.72;3575758;40;20053;-75
2021/07/28 00:25:05;;;;;;;7.32;1.85;;;;;;;15.96;74.80;100143.22;3564357;40;20176;-76
2021/07/28 00:27:36;;;;;;;4.63;1.95;;;;;;;15.95;74.04;100141.53;3576186;40;20073;-75
2021/07/28 00:30:08;;;;;;;4.78;1.88;;;;;;;15.90;74.09;100144.41;3556911;40;20106;-75
2021/07/28 00:32:38;;;;;;;6.65;1.85;;;;;;;15.88;74.34;100132.28;3578766;40;20065;-75
2021/07/28 00:35:08;;;;;;;6.50;2.72;;;;;;;15.77;74.51;100128.44;3583705;39;21163;-75
2021/07/28 00:37:35;;;;;;;5.53;2.08;;;;;;;15.77;74.74;100132.84;3574835;40;20092;-75
2021/07/28 00:40:03;;;;;;;6.18;1.95;;;;;;;15.75;75.06;100130.28;3584592;40;20134;-76
2021/07/28 00:42:32;;;;;;;5.30;2.10;;;;;;;15.72;74.65;100127.84;3560620;40;20067;-76
2021/07/28 00:45:04;;;;;;;6.05;2.40;;;;;;;15.69;74.63;100119.25;3580249;39;20908;-75
2021/07/28 00:47:31;;;;;;;6.18;2.10;;;;;;;15.62;75.11;100113.44;3566214;40;20311;-76
2021/07/28 00:50:04;;;;;;;;;;;;;;;15.70;72.53;100120.94;3565034;40;20770;-76
2021/07/28 00:52:38;;;;;;;3.67;1.45;;;;;;;15.62;75.39;100107.31;3563216;40;19945;-76
2021/07/28 00:55:07;;;;;;;6.65;1.85;;;;;;;15.60;75.07;100110.00;3559929;40;20530;-76
2021/07/28 00:57:34;;;;;;;5.80;2.10;;;;;;;15.53;74.89;100096.34;3576926;40;20833;-76
2021/07/28 01:00:02;;;;;;;4.88;1.65;;;;;;;15.53;75.25;100092.84;3579097;40;20090;-75
2021/07/28 01:02:36;;;;;;;7.85;1.58;;;;;;;15.53;74.82;100096.34;3575865;40;20776;-76
2021/07/28 01:05:05;;;;;;;6.85;2.30;;;;;;;15.51;75.51;100099.97;3560644;40;20138;-75
2021/07/28 01:07:33;;;;;;;3.67;1.08;;;;;;;15.45;76.68;100097.66;3569040;40;20069;-75
2021/07/28 01:10:01;;;;;;;4.30;1.60;;;;;;;15.45;75.57;100093.25;3577684;40;20079;-75
2021/07/28 01:12:31;;;;;;;5.32;1.80;;;;;;;15.41;76.25;100104.88;3551476;40;20105;-76
2021/07/28 01:14:59;;;;;;;2.97;1.05;;;;;;;15.37;76.16;100091.97;3573812;40;20092;-76
2021/07/28 01:17:26;;;;;;;4.40;1.40;;;;;;;15.38;75.42;100098.91;3561177;40;20068;-75
2021/07/28 01:20:00;;;;;;;9.07;1.98;;;;;;;15.40;75.05;100099.69;3572874;40;20334;-75
2021/07/28 01:22:27;;;;;;;5.47;1.95;;;;;;;15.29;75.53;100074.78;3552714;40;20084;-75
2021/07/28 01:24:55;;;;;;;6.80;1.83;;;;;;;15.29;75.93;100074.78;3583250;40;20048;-76
2021/07/28 01:27:22;;;;;;;5.40;1.83;;;;;;;15.16;75.27;100065.84;3577630;40;20090;-76
2021/07/28 01:29:50;;;;;;;4.28;1.75;;;;;;;15.29;75.31;100080.03;3576296;40;20061;-76
2021/07/28 01:32:19;;;;;;;4.20;1.40;;;;;;;15.27;75.66;100076.66;3558810;40;20056;-76
2021/07/28 01:34:48;;;;;;;4.60;2.00;;;;;;;15.24;75.96;100076.81;3570858;40;20147;-75
2021/07/28 01:37:17;;;;;;;6.72;2.40;;;;;;;15.23;75.39;100069.84;3559641;40;20398;-75
2021/07/28 01:39:44;;;;;;;5.30;2.38;;;;;;;15.17;75.50;100062.28;3551044;40;20065;-75
2021/07/28 01:42:11;;;;;;;5.97;2.43;;;;;;;15.15;76.47;100056.22;3574807;40;20067;-76
2021/07/28 01:44:41;;;;;;;4.93;2.33;;;;;;;15.14;75.66;100059.78;3574383;40;21055;-76
2021/07/28 01:47:07;;;;;;;6.72;2.25;;;;;;;15.12;75.88;100059.03;3562732;40;20418;-76
2021/07/28 01:49:34;;;;;;;4.90;2.08;;;;;;;15.09;75.98;100051.28;3553330;40;20053;-76
2021/07/28 01:52:01;;;;;;;4.22;1.90;;;;;;;15.08;76.40;100049.59;3567713;40;20050;-76
2021/07/28 01:54:28;;;;;;;5.40;2.20;;;;;;;15.04;76.50;100045.41;3573310;40;20084;-75
2021/07/28 01:56:54;;;;;;;5.93;2.33;;;;;;;15.05;76.37;100049.75;3574885;40;20139;-75
2021/07/28 01:59:23;;;;;;;9.50;2.53;;;;;;;14.99;75.98;100039.56;3574702;40;20067;-76
2021/07/28 02:01:50;;;;;;;6.55;2.40;;;;;;;14.96;76.92;100035.31;3567939;40;20096;-75
2021/07/28 02:04:17;;;;;;;11.30;2.80;;;;;;;15.00;75.91;100039.50;3552803;40;20072;-76
2021/07/28 02:06:43;;;;;;;6.13;1.70;;;;;;;14.95;76.49;100038.00;3563976;40;20052;-75
2021/07/28 02:09:10;;;;;;;6.47;2.55;;;;;;;14.96;76.64;100045.84;3567294;40;20284;-75
2021/07/28 02:11:38;;;;;;;5.80;2.40;;;;;;;14.95;75.62;100040.63;3553837;40;20087;-75
2021/07/28 02:14:13;;;;;;;;;;;;;;;15.00;74.27;100046.50;3565463;40;20796;-75
2021/07/28 02:16:40;;;;;;;5.65;2.30;;;;;;;14.91;75.72;100033.84;3558164;40;20009;-75
2021/07/28 02:19:08;;;;;;;5.10;2.37;;;;;;;14.92;75.68;100032.91;3563499;40;20115;-75
2021/07/28 02:21:36;;;;;;;;;;;;;;;14.95;73.65;100038.00;3548268;40;20320;-75
2021/07/28 02:24:05;;;;;;;4.93;1.98;;;;;;;14.88;75.53;100034.84;3560402;40;20023;-75
2021/07/28 02:26:32;;;;;;;5.88;1.60;;;;;;;14.85;76.32;100031.50;3561071;40;20061;-76
2021/07/28 02:29:03;;;;;;;6.28;1.90;;;;;;;14.84;75.64;100029.81;3572328;40;20131;-76
2021/07/28 02:31:31;;;;;;;3.95;1.70;;;;;;;14.81;76.43;100028.22;3556906;40;20454;-76
2021/07/28 02:33:57;;;;;;;;;;;;;;;14.84;74.04;100035.06;3561004;40;20050;-75
2021/07/28 02:36:24;;;;;;;3.20;1.43;;;;;;;14.77;76.35;100019.63;3551643;40;19941;-76
2021/07/28 02:38:51;;;;;;;5.87;2.20;;;;;;;14.78;76.35;100016.06;3564525;40;20060;-75
2021/07/28 02:41:18;;;;;;;4.70;2.00;;;;;;;14.76;76.16;100012.69;3574621;40;20085;-75
2021/07/28 02:43:44;;;;;;;6.05;1.75;;;;;;;14.78;76.52;100010.81;3544499;40;20073;-75
2021/07/28 02:46:11;;;;;;;5.95;1.77;;;;;;;14.78;76.12;100005.56;3566517;40;20053;-76
2021/07/28 02:48:39;;;;;;;5.03;1.92;;;;;;;14.83;76.57;100004.47;3574508;40;20408;-76
2021/07/28 02:51:07;;;;;;;;;;;;;;;14.87;73.94;100009.50;3569633;40;20060;-75
2021/07/28 02:53:35;;;;;;;9.85;1.98;;;;;;;14.84;76.38;100000.91;3576759;40;19952;-75
2021/07/28 02:56:02;;;;;;;;;;;;;;;14.87;73.93;100008.66;3584667;40;20068;-76
2021/07/28 02:58:30;;;;;;;4.32;1.60;;;;;;;14.79;75.74;99996.72;3576344;40;19957;-75
2021/07/28 03:01:02;;;;;;;5.15;2.03;;;;;;;14.81;75.63;99998.47;3576560;40;20503;-75
2021/07/28 03:03:34;;;;;;;7.35;1.73;;;;;;;14.76;75.66;99991.66;3574803;40;20116;-76
2021/07/28 03:06:02;;;;;;;4.40;1.52;;;;;;;14.74;76.67;99988.22;3559355;40;20053;-75
2021/07/28 03:08:31;;;;;;;3.20;1.48;;;;;;;14.69;76.55;99981.50;3576285;40;20069;-75
2021/07/28 03:11:01;;;;;;;5.07;1.90;;;;;;;14.62;76.51;99967.84;3564471;40;20087;-76
2021/07/28 03:13:28;;;;;;;3.58;1.30;;;;;;;14.62;76.74;99970.47;3577945;40;20059;-76
2021/07/28 03:15:55;;;;;;;4.40;1.63;;;;;;;14.66;76.83;99972.03;3575849;40;20081;-75
2021/07/28 03:18:21;;;;;;;4.43;1.98;;;;;;;14.67;76.77;99983.38;3577999;40;20162;-76
2021/07/28 03:20:48;;;;;;;3.90;1.38;;;;;;;14.65;75.97;99977.34;3563177;40;20084;-75
2021/07/28 03:23:16;;;;;;;4.63;1.40;;;;;;;14.65;76.98;99967.69;3573554;40;20079;-75
2021/07/28 03:25:43;;;;;;;;;;;;;;;14.69;74.27;99977.09;3561041;40;20341;-75
2021/07/28 03:28:10;;;;;;;4.77;1.90;;;;;;;14.64;76.07;99971.22;3571700;40;20236;-74
2021/07/28 03:30:37;;;;;;;3.83;1.70;;;;;;;14.63;76.13;99972.16;3573072;40;20299;-75
2021/07/28 03:33:04;;;;;;;;;;;;;;;14.65;74.22;99972.97;3573296;40;20275;-76
2021/07/28 03:35:31;;;;;;;4.50;1.70;;;;;;;14.54;75.95;99960.34;3562830;40;19952;-75
2021/07/28 03:37:58;;;;;;;4.83;1.83;;;;;;;14.57;77.06;99967.22;3575279;40;20096;-76
2021/07/28 03:40:24;;;;;;;6.45;2.00;;;;;;;14.58;76.36;99965.44;3581323;40;20057;-75
2021/07/28 03:42:51;;;;;;;5.18;1.67;;;;;;;14.53;76.67;99958.66;3573309;40;20111;-76
2021/07/28 03:45:24;;;;;;;5.78;2.45;;;;;;;14.54;75.72;99954.25;3563735;40;20065;-76
2021/07/28 03:47:51;;;;;;;10.05;2.80;;;;;;;14.52;76.47;99956.09;3551156;40;20064;-76
2021/07/28 03:50:18;;;;;;;8.77;2.60;;;;;;;14.52;76.82;99956.94;3555245;40;20081;-76
2021/07/28 03:53:10;;;;;;;6.07;2.80;;;;;;;14.56;75.50;99952.41;3551236;40;20698;-76
2021/07/28 03:55:37;;;;;;;5.30;2.22;;;;;;;14.47;76.76;99937.94;3553507;40;20431;-76
2021/07/28 03:58:09;;;;;;;6.63;2.70;;;;;;;14.53;76.57;99947.28;3566488;40;20863;-75
2021/07/28 04:00:38;;;;;;;7.88;2.95;;;;;;;14.51;76.96;99943.91;3566738;40;20049;-76
2021/07/28 04:03:09;;;;;;;6.68;2.75;;;;;;;14.56;76.19;99957.66;3560868;40;20060;-76
2021/07/28 04:05:37;;;;;;;6.80;2.45;;;;;;;14.53;76.66;99944.66;3569506;40;20119;-76
2021/07/28 04:08:04;;;;;;;7.75;3.00;;;;;;;14.55;76.87;99945.44;3569311;40;20053;-76
2021/07/28 04:10:33;;;;;;;10.20;2.63;;;;;;;14.56;77.27;99936.63;3568937;40;20068;-76
2021/07/28 04:13:00;;;;;;;6.15;2.20;;;;;;;14.49;77.34;99919.47;3547405;40;20447;-75
2021/07/28 04:15:28;;;;;;;5.15;2.15;;;;;;;14.52;77.40;99929.84;3560487;40;20064;-75
2021/07/28 04:17:55;;;;;;;6.40;2.25;;;;;;;14.58;76.77;99932.13;3553174;40;20068;-76
2021/07/28 04:20:22;;;;;;;5.05;2.08;;;;;;;14.55;77.39;99924.44;3564967;40;20065;-75
2021/07/28 04:22:49;;;;;;;6.65;2.55;;;;;;;14.55;77.00;99916.56;3567434;40;20071;-76
2021/07/28 04:25:22;;;;;;;4.45;1.80;;;;;;;14.59;76.76;99923.31;3547653;40;20048;-75
2021/07/28 04:27:49;;;;;;;5.03;1.63;;;;;;;14.57;77.29;99917.31;3552954;40;20064;-75
2021/07/28 04:30:17;;;;;;;4.97;1.60;;;;;;;14.59;76.97;99918.06;3568471;40;20064;-75
2021/07/28 04:32:46;;;;;;;5.80;2.00;;;;;;;14.57;77.26;99911.22;3557500;40;20049;-76
2021/07/28 04:35:13;;;;;;;4.45;1.95;;;;;;;14.58;77.96;99924.25;3564906;40;20633;-74
2021/07/28 04:37:39;;;;;;;5.20;1.90;;;;;;;14.57;77.95;99914.69;3566486;40;20061;-75
2021/07/28 04:40:08;;;;;;;4.88;1.92;;;;;;;14.60;77.92;99916.28;3558343;40;20054;-76
2021/07/28 04:42:37;;;;;;;6.22;2.08;;;;;;;14.59;77.69;99907.56;3555120;40;20151;-75
2021/07/28 04:45:06;;;;;;;6.43;2.85;;;;;;;14.62;76.98;99910.03;3548172;40;20403;-75
2021/07/28 04:47:33;;;;;;;4.00;1.60;;;;;;;14.64;77.26;99917.84;3555887;40;20110;-75
2021/07/28 04:50:00;;;;;;;4.65;1.88;;;;;;;14.62;76.82;99910.03;3576587;40;20048;-75
2021/07/28 04:52:29;;;;;;;6.83;1.87;;;;;;;14.62;77.28;99906.56;3574743;40;20971;-76
2021/07/28 04:54:59;;;;;;;7.25;2.50;;;;;;;14.66;76.91;99910.75;3560244;40;20298;-75
2021/07/28 04:57:29;;;;;;;6.88;2.35;;;;;;;14.69;76.58;99906.16;3577936;40;20620;-75
2021/07/28 05:00:02;;;;;;;6.55;2.03;;;;;;;14.70;76.81;99900.00;3560941;40;20057;-75
2021/07/28 05:02:29;;;;;;;6.03;2.00;;;;;;;14.71;77.08;99893.78;3576736;40;20045;-75
2021/07/28 05:04:58;;;;;;;4.82;1.80;;;;;;;14.73;77.10;99896.34;3576907;40;20053;-75
2021/07/28 05:07:24;;;;;;;;;;;;;;;14.81;75.06;99898.56;3579329;40;20078;-76
2021/07/28 05:09:54;;;;;;;5.43;2.05;;;;;;;14.78;76.48;99895.16;3564303;40;19960;-75
2021/07/28 05:12:21;;;;;;;7.18;1.92;;;;;;;14.76;76.70;99880.41;3568172;40;20049;-75
2021/07/28 05:14:48;;;;;;;6.87;2.07;;;;;;;14.75;76.46;99879.56;3560077;40;20053;-75
2021/07/28 05:17:15;;;;;;;4.70;1.80;;;;;;;14.80;76.41;99884.59;3572972;40;20069;-76
2021/07/28 05:19:41;;;;;;;6.60;2.10;;;;;;;14.79;76.54;99865.31;3568894;40;21098;-75
2021/07/28 05:22:08;;;;;;;4.82;1.83;;;;;;;14.76;76.59;99864.66;3575500;40;21018;-76
2021/07/28 05:24:38;;;;;;;8.57;2.00;;;;;;;14.86;76.25;99870.25;3577009;40;20151;-75
2021/07/28 05:27:05;;;;;;;15.65;2.67;;;;;;;14.90;76.55;99879.66;3576449;40;20068;-75
2021/07/28 05:29:33;;;;;;;5.27;2.23;;;;;;;14.95;76.36;99880.25;3575610;40;20084;-75
2021/07/28 05:32:00;;;;;;;5.35;2.10;;;;;;;14.98;76.52;99878.31;3557660;40;20053;-75
2021/07/28 05:34:29;;;;;;;5.95;2.08;;;;;;;15.02;76.25;99877.22;3579419;40;20055;-75
2021/07/28 05:36:57;;;;;;;8.50;2.08;;;;;;;15.06;76.38;99877.94;3567109;40;20053;-75
2021/07/28 05:39:25;;;;;;;4.68;1.75;;;;;;;15.04;76.67;99871.88;3578756;40;20057;-75
2021/07/28 05:41:57;;;;;;;6.65;2.22;;;;;;;15.18;76.32;99876.41;3566865;40;20055;-75
2021/07/28 05:44:25;;;;;;;4.72;1.75;;;;;;;15.22;77.81;99878.78;3555645;40;20065;-76
2021/07/28 05:46:51;;;;;;;4.28;1.60;;;;;;;15.25;77.44;99877.75;3571005;40;20049;-76
2021/07/28 05:49:19;;;;;;;4.45;1.90;;;;;;;15.31;76.58;99880.91;3577290;40;25778;-75
2021/07/28 05:51:47;;;;;;;5.35;2.60;;;;;;;15.37;77.15;99876.25;3567140;40;20146;-75
2021/07/28 05:54:15;;;;;;;6.05;2.10;;;;;;;15.35;76.87;99871.03;3569641;40;20138;-75
2021/07/28 05:56:43;;;;;;;6.68;2.25;;;;;;;15.42;76.88;99876.84;3574321;40;22207;-76
2021/07/28 05:59:10;;;;;;;;;;;;;;;15.51;74.72;99873.66;3578936;39;20053;-75
2021/07/28 06:01:37;;;;;;;7.47;2.03;;;;;;;15.42;76.85;99863.69;3572583;40;19941;-75
2021/07/28 06:04:12;;;;;;;5.38;1.88;;;;;;;15.53;76.69;99863.91;3574747;40;20063;-76
2021/07/28 06:06:39;;;;;;;3.67;1.58;;;;;;;15.51;77.45;99848.22;3563970;40;20060;-75
2021/07/28 06:09:07;;;;;;;3.63;1.33;;;;;;;15.50;76.89;99857.03;3574269;40;20115;-75
2021/07/28 06:11:35;;;;;;;4.32;1.63;;;;;;;15.55;77.08;99857.63;3580532;40;20463;-75
2021/07/28 06:14:01;;;;;;;;;;;;;;;15.65;74.53;99865.03;3574282;40;20045;-76
2021/07/28 06:16:29;;;;;;;3.73;1.60;;;;;;;15.59;77.61;99858.28;3564421;40;19940;-76
2021/07/28 06:18:58;;;;;;;3.53;1.35;;;;;;;15.60;78.59;99862.63;3574738;40;20341;-77
2021/07/28 06:21:25;;;;;;;3.08;1.02;;;;;;;15.53;79.21;99850.75;3560604;40;20064;-77
2021/07/28 06:24:01;;;;;;;3.87;1.40;;;;;;;15.52;77.83;99847.28;3554487;40;20077;-77
2021/07/28 06:26:28;;;;;;;4.32;1.10;;;;;;;15.48;80.24;99865.97;3558942;40;20063;-77
2021/07/28 06:28:55;;;;;;;8.50;1.48;;;;;;;15.41;80.15;99857.56;3589117;40;20142;-78
2021/07/28 06:31:25;;;;;;;2.28;1.10;;;;;;;15.41;80.41;99856.69;3580468;40;20426;-77
2021/07/28 06:33:58;;;;;;;5.05;1.50;;;;;;;15.37;79.49;99856.03;3581016;40;20056;-78
2021/07/28 06:36:25;;;;;;;3.22;1.20;;;;;;;15.32;80.35;99856.28;3578337;40;20407;-80
2021/07/28 06:38:58;;;;;;;3.53;1.50;;;;;;;15.30;79.55;99858.13;3583051;39;20403;-79
2021/07/28 06:41:25;;;;;;;3.15;1.23;;;;;;;15.18;80.86;99836.94;3552820;40;20279;-79
2021/07/28 06:43:55;;;;;;;;;;;;;;;15.30;77.24;99855.50;3585714;40;20060;-77
2021/07/28 06:46:22;;;;;;;2.13;0.75;;;;;;;15.13;81.03;99837.19;3579879;40;20316;-78
2021/07/28 06:48:50;;;;;;;3.28;1.17;;;;;;;15.17;81.50;99838.72;3586552;40;20056;-78
2021/07/28 06:51:19;;;;;;;2.60;0.90;;;;;;;15.19;81.61;99844.75;3584127;40;20504;-78
2021/07/28 06:53:50;;;;;;;3.40;1.30;;;;;;;15.18;80.96;99843.06;3559138;40;20109;-78
2021/07/28 06:56:19;;;;;;;3.05;0.88;;;;;;;15.09;81.51;99829.56;3587511;40;20069;-78
2021/07/28 06:58:46;;;;;;;4.07;1.40;;;;;;;15.07;81.52;99819.13;3562869;40;20040;-78
2021/07/28 07:01:14;;;;;;;2.00;0.85;;;;;;;14.96;81.79;99808.38;3577561;40;20049;-78
2021/07/28 07:03:41;;;;;;;3.92;1.58;;;;;;;15.05;81.86;99824.50;3584370;40;20064;-79
2021/07/28 07:06:24;;;;;;;3.03;1.38;;;;;;;15.17;81.95;99833.47;3574808;40;20051;-77
2021/07/28 07:08:54;;;;;;;4.30;1.00;;;;;;;15.20;81.75;99828.03;3589107;39;20076;-78
2021/07/28 07:11:23;;;;;;;2.45;1.08;;;;;;;15.18;82.15;99819.38;3563953;40;20059;-77
2021/07/28 07:13:55;;;;;;;2.35;1.20;;;;;;;15.16;81.96;99813.38;3586625;40;20693;-77
2021/07/28 07:16:23;;;;;;;2.25;0.95;;;;;;;15.27;81.99;99818.03;3570008;40;20052;-79
2021/07/28 07:18:50;;;;;;;2.67;1.05;;;;;;;15.26;82.31;99809.28;3587300;40;20056;-78
2021/07/28 07:21:26;;;;;;;4.03;1.40;;;;;;;15.31;81.06;99809.88;3551946;40;20060;-78
2021/07/28 07:23:54;;;;;;;2.22;1.15;;;;;;;15.32;81.89;99806.31;3568374;40;20081;-78
2021/07/28 07:26:25;;;;;;;2.17;1.02;;;;;;;15.40;81.94;99808.50;3590255;39;20045;-78
2021/07/28 07:28:52;;;;;;;1.98;0.98;;;;;;;15.41;82.25;99809.34;3573432;39;20064;-79
2021/07/28 07:31:19;;;;;;;3.20;1.27;;;;;;;15.40;81.59;99794.50;3575185;40;20051;-78
2021/07/28 07:33:48;;;;;;;2.40;1.10;;;;;;;15.37;81.17;99776.28;3567439;40;20084;-78
2021/07/28 07:36:22;;;;;;;3.83;1.15;;;;;;;15.51;81.09;99799.97;3578547;40;20267;-79
2021/07/28 07:38:51;;;;;;;3.45;1.27;;;;;;;15.53;81.14;99782.34;3573060;40;20045;-78
2021/07/28 07:41:18;;;;;;;2.22;0.82;;;;;;;15.53;81.39;99779.72;3576614;40;20055;-77
2021/07/28 07:43:47;;;;;;;2.33;0.83;;;;;;;15.61;81.42;99780.09;3576736;40;20056;-77
2021/07/28 07:46:14;;;;;;;2.75;0.90;;;;;;;15.56;81.33;99761.97;3587034;40;20077;-78
2021/07/28 07:48:41;;;;;;;2.35;1.05;;;;;;;15.57;81.16;99763.66;3566164;40;20111;-78
2021/07/28 07:51:18;;;;;;;3.60;1.23;;;;;;;15.74;80.22;99786.38;3592724;39;20060;-78
2021/07/28 07:53:46;;;;;;;2.20;0.80;;;;;;;15.83;80.76;99801.66;3575111;40;20072;-78
2021/07/28 07:56:14;;;;;;;3.65;1.13;;;;;;;15.80;79.86;99793.91;3582930;40;20056;-79
2021/07/28 07:58:43;;;;;;;2.45;1.00;;;;;;;15.85;79.89;99800.69;3582341;40;20033;-78
2021/07/28 08:01:13;;;;;;;2.75;1.00;;;;;;;15.64;79.49;99773.84;3588261;40;20085;-78
2021/07/28 08:03:44;;;;;;;2.20;0.98;;;;;;;15.77;78.80;99807.28;3570089;40;20055;-78
2021/07/28 08:06:11;;;;;;;3.50;0.90;;;;;;;15.59;79.82;99787.25;3574843;40;20118;-78
2021/07/28 08:08:41;;;;;;;2.05;0.88;;;;;;;15.59;79.49;99797.78;3564806;40;20061;-77
2021/07/28 08:11:13;;;;;;;2.08;0.82;;;;;;;15.69;79.50;99814.75;3549390;40;20100;-78
2021/07/28 08:13:48;;;;;;;2.22;0.90;;;;;;;15.68;79.12;99828.00;3580539;40;20045;-77
2021/07/28 08:16:20;;;;;;;2.72;0.80;;;;;;;15.62;79.42;99810.75;3560864;40;20575;-78
2021/07/28 08:18:49;;;;;;;3.28;0.70;;;;;;;15.60;79.64;99811.78;3571058;40;20053;-78
2021/07/28 08:21:19;;;;;;;1.77;0.80;;;;;;;15.58;79.86;99796.09;3583659;40;20419;-77
2021/07/28 08:23:52;;;;;;;3.03;0.70;;;;;;;15.58;79.09;99788.19;3574918;40;20067;-77
2021/07/28 08:26:19;;;;;;;1.77;0.60;;;;;;;15.55;79.35;99796.25;3587631;39;20765;-77
2021/07/28 08:28:47;;;;;;;2.30;1.05;;;;;;;15.56;78.77;99787.41;3580742;40;20072;-78
2021/07/28 08:31:15;;;;;;;1.88;0.90;;;;;;;15.51;79.32;99786.81;3576880;40;20063;-77
2021/07/28 08:33:43;;;;;;;;;;;;;;;15.65;77.70;99796.59;3576483;40;22526;-78
2021/07/28 08:36:13;;;;;;;2.15;0.85;;;;;;;15.62;79.49;99792.34;3558808;40;19951;-78
2021/07/28 08:38:40;;;;;;;3.13;0.90;;;;;;;15.61;80.09;99789.78;3581217;40;20447;-78
2021/07/28 08:41:09;;;;;;;1.70;0.70;;;;;;;15.54;79.70;99770.88;3571001;40;20448;-78
2021/07/28 08:43:38;;;;;;;2.15;0.73;;;;;;;15.65;78.77;99786.06;3578566;40;20139;-78
2021/07/28 08:46:09;;;;;;;2.25;1.00;;;;;;;15.64;79.71;99773.84;3567319;40;20356;-78
2021/07/28 08:48:38;;;;;;;2.38;0.95;;;;;;;15.61;79.16;99769.56;3582966;40;20049;-77
2021/07/28 08:51:31;;;;;;;3.08;1.15;;;;;;;15.70;78.63;99776.13;3575039;40;21324;-77
2021/07/28 08:54:07;;;;;;;2.38;1.00;;;;;;;15.68;79.91;99760.44;3571744;40;20055;-78
2021/07/28 08:56:41;;;;;;;2.72;1.10;;;;;;;15.77;79.77;99773.06;3578352;40;20177;-77
2021/07/28 08:59:39;;;;;;;1.98;0.98;;;;;;;15.89;79.27;99773.25;3570434;40;20053;-78
2021/07/28 09:02:07;;;;;;;3.00;1.30;;;;;;;15.93;80.38;99769.50;3575117;40;20356;-77
2021/07/28 09:04:34;;;;;;;3.00;1.50;;;;;;;16.01;80.30;99764.63;3563974;40;20441;-78
2021/07/28 09:07:16;;;;;;;2.63;1.20;;;;;;;16.19;78.85;99760.03;3579065;40;20065;-78
2021/07/28 09:09:58;;;;;;;2.92;1.35;;;;;;;16.30;78.13;99766.34;3585908;40;20053;-78
2021/07/28 09:12:32;;;;;;;4.10;1.40;;;;;;;16.35;78.66;99751.09;3565456;40;20074;-78
2021/07/28 09:15:05;;;;;;;2.53;1.25;;;;;;;16.44;78.11;99764.66;3588635;40;20056;-78
2021/07/28 09:17:37;;;;;;;2.00;1.13;;;;;;;16.47;77.95;99748.63;3563118;40;20069;-78
2021/07/28 09:20:05;;;;;;;2.33;1.10;;;;;;;16.50;77.70;99745.81;3580038;40;20060;-78
2021/07/28 09:22:39;;;;;;;3.92;1.30;;;;;;;16.66;79.26;99743.06;3574186;40;20065;-78
2021/07/28 09:25:16;;;;;;;2.00;1.20;;;;;;;16.84;78.26;99737.50;3577679;40;20054;-77
2021/07/28 09:27:49;;;;;;;2.42;1.20;;;;;;;17.08;77.10;99745.66;3565908;40;20064;-78
2021/07/28 09:30:37;;;;;;;3.28;1.02;;;;;;;17.24;76.09;99750.75;3568528;40;20343;-78
2021/07/28 09:33:11;;;;;;;1.63;0.85;;;;;;;17.32;75.76;99740.53;3569452;40;20059;-77
2021/07/28 09:35:54;;;;;;;2.97;0.90;;;;;;;17.50;75.43;99745.56;3568395;40;20160;-78
2021/07/28 09:38:31;;;;;;;4.50;0.77;;;;;;;17.52;74.80;99744.50;3566389;40;20060;-78
2021/07/28 09:41:19;;;;;;;1.25;0.57;;;;;;;17.66;75.28;99740.94;3562660;40;20498;-78
2021/07/28 09:43:54;;;;;;;3.08;0.90;;;;;;;17.84;75.12;99754.72;3549426;40;20065;-78
2021/07/28 09:46:27;;;;;;;1.67;0.70;;;;;;;18.05;73.71;99755.06;3563867;40;20085;-77
2021/07/28 09:49:01;;;;;;;2.00;0.70;;;;;;;18.24;72.44;99763.38;3561972;40;20086;-77
2021/07/28 09:51:38;;;;;;;1.60;0.55;;;;;;;18.29;72.34;99750.69;3552742;40;20073;-78
2021/07/28 09:54:10;;;;;;;1.95;0.50;;;;;;;18.28;72.56;99743.72;3552434;40;20059;-78
2021/07/28 09:56:46;;;;;;;1.85;0.57;;;;;;;18.23;72.99;99747.66;3566596;40;20077;-77
2021/07/28 09:59:19;;;;;;;1.23;0.70;;;;;;;18.10;72.69;99743.22;3561094;40;20057;-77
2021/07/28 10:01:47;;;;;;;2.80;0.93;;;;;;;17.97;72.67;99754.72;3562210;40;20101;-77
2021/07/28 10:04:17;;;;;;;1.27;0.60;;;;;;;17.92;72.65;99762.13;3566784;40;20065;-77
2021/07/28 10:06:46;;;;;;;1.17;0.70;;;;;;;17.92;74.66;99767.41;3569710;40;20044;-78
2021/07/28 10:09:16;;;;;;;1.85;0.73;;;;;;;18.00;75.54;99776.50;3569660;40;20398;-77
2021/07/28 10:11:47;;;;;;;1.60;0.38;;;;;;;18.28;74.50;99790.47;3557099;40;20398;-77
2021/07/28 10:14:17;;;;;;;3.45;0.73;;;;;;;18.42;73.59;99783.25;3567521;40;20114;-77
2021/07/28 10:16:52;;;;;;;0.82;0.30;;;;;;;18.50;72.47;99784.50;3565320;40;20061;-76
2021/07/28 10:19:21;;;;;;;1.88;0.30;;;;;;;18.40;71.79;99773.78;3559173;40;20756;-77
2021/07/28 10:21:54;;;;;;;0.60;0.30;;;;;;;18.31;73.27;99769.97;3564408;40;20057;-77
2021/07/28 10:24:22;;;;;;;1.88;0.35;;;;;;;18.27;72.95;99779.03;3566807;40;20065;-77
2021/07/28 10:26:51;;;;;;;0.57;0.22;;;;;;;18.14;72.65;99768.47;3567143;40;20097;-78
2021/07/28 10:29:26;;;;;;;0.80;0.40;;;;;;;18.08;72.96;99784.75;3565655;40;20053;-77
2021/07/28 10:31:57;;;;;;;0.93;0.40;;;;;;;17.99;74.04;99784.53;3563117;40;20489;-77
2021/07/28 10:34:36;;;;;;;0.95;0.50;;;;;;;17.92;72.26;99793.81;3556314;40;20584;-77
2021/07/28 10:37:07;;;;;;;1.30;0.40;;;;;;;17.77;74.46;99782.50;3561053;40;20115;-77
2021/07/28 10:39:46;;;;;;;1.45;0.40;;;;;;;17.69;73.96;99775.06;3555882;40;20057;-77
2021/07/28 10:42:30;;;;;;;1.25;0.40;;;;;;;17.69;74.18;99782.13;3558560;40;20061;-77
2021/07/28 10:45:05;;;;;;;0.50;0.30;;;;;;;17.66;73.27;99769.97;3554278;40;20054;-77
2021/07/28 10:47:40;;;;;;;4.60;0.50;;;;;;;17.68;74.04;99769.88;3558901;40;20360;-77
2021/07/28 10:50:30;;;;;;;1.27;0.50;;;;;;;17.73;73.22;99773.06;3547724;40;20129;-77
2021/07/28 10:53:02;;;;;;;1.17;0.40;;;;;;;17.79;73.73;99770.03;3548386;40;20064;-77
2021/07/28 10:55:34;;;;;;;4.65;0.55;;;;;;;17.87;75.61;99760.63;3561796;40;20098;-77
2021/07/28 10:58:07;;;;;;;2.08;0.73;;;;;;;18.07;76.14;99769.84;3544269;40;20068;-78
2021/07/28 11:00:50;;;;;;;1.10;0.43;;;;;;;18.37;75.61;99777.44;3565217;40;20083;-77
2021/07/28 11:03:18;;;;;;;1.00;0.50;;;;;;;18.61;74.96;99782.81;3553373;40;20449;-78
2021/07/28 11:05:48;;;;;;;;;;;;;;;19.11;75.53;99778.41;3560668;40;20448;-77
2021/07/28 11:08:19;;;;;;;0.70;0.40;;;;;;;19.38;74.00;99762.28;3568027;40;19941;-77
2021/07/28 11:11:00;;;;;;;1.75;0.70;;;;;;;20.03;74.44;99768.91;3556595;40;20066;-78
2021/07/28 11:13:30;;;;;;;0.95;0.60;;;;;;;20.47;70.35;99772.56;3548360;40;20143;-78
2021/07/28 11:16:06;;;;;;;1.55;0.55;;;;;;;20.97;67.96;99773.84;3567801;40;20086;-78
2021/07/28 11:18:48;;;;;;;0.55;0.40;;;;;;;21.40;66.88;99781.00;3559962;40;20058;-77
2021/07/28 11:21:16;;;;;;;1.20;0.50;;;;;;;21.75;61.77;99787.88;3548802;40;20065;-79
2021/07/28 11:24:01;;;;;;;0.75;0.30;;;;;;;22.11;63.12;99799.06;3559118;40;20415;-77
2021/07/28 11:26:45;;;;;;;0.60;0.30;;;;;;;22.08;54.17;99793.94;3549220;40;20477;-78
2021/07/28 11:29:18;;;;;;;0.43;0.10;;;;;;;21.98;58.03;99794.72;3551525;40;20049;-78
2021/07/28 11:31:56;;;;;;;0.47;0.10;;;;;;;21.64;57.02;99790.56;3547383;40;20107;-77
2021/07/28 11:34:55;;;;;;;0.20;0.20;;;;;;;21.36;60.89;99798.16;3558765;40;20053;-77
2021/07/28 11:37:22;;;;;;;0.28;0.20;;;;;;;20.93;58.56;99798.97;3557718;40;20069;-77
2021/07/28 11:39:53;;;;;;;0.28;0.20;;;;;;;20.68;59.80;99781.50;3558415;40;20107;-77
2021/07/28 11:42:28;;;;;;;0.25;0.20;;;;;;;20.44;60.30;99789.53;3554894;40;21102;-77
2021/07/28 11:44:55;;;;;;;0.45;0.20;;;;;;;20.17;60.47;99781.06;3550359;40;20869;-77
2021/07/28 11:47:24;;;;;;;1.10;0.30;;;;;;;20.01;60.70;99772.59;3564816;40;20033;-77
2021/07/28 11:50:02;;;;;;;0.82;0.38;;;;;;;19.96;62.45;99778.25;3579818;40;20084;-77
2021/07/28 11:52:32;;;;;;;0.60;0.40;;;;;;;19.81;61.23;99774.13;3558033;40;20119;-77